Arbuckle, West Virginia
Current Conditions -  °F | °C
As of 4:15 PM on Saturday 22 Nov 2014 (Local Time) from K3I2 Reporting Station
Overcast Overcast  
Wind Chill: 59°   Ceiling: 10000
Heat Index: 59°   Visibility: 10mi
Dew Point: 30°   Wind: 7mph
Humidity: 34%   Direction: 210°SSW
Pressure: 30.19"   Gusts: NA
Location:  38.7463°N, 81.8897°W
Report Text: K3I2 222115Z AUTO 21006KT 10SM OVC100 15/M01 A3019 RMK AO2
Loading
Personal Weather Stations






























Interactive Weather Map New forecast layout! Learn more

10-Day Weather Forecast

Advertisements
Track Severe Weather on mobile